sensor_id;sensor_type;location;lat;lon;timestamp;temperature;humidity
2391;DHT22;22957;50.824;4.360;2024-03-29T00:02:01;12.00;99.90
2391;DHT22;22957;50.824;4.360;2024-03-29T00:04:26;11.90;99.90
2391;DHT22;22957;50.824;4.360;2024-03-29T00:06:52;12.00;99.90
2391;DHT22;22957;50.824;4.360;2024-03-29T00:09:18;12.10;99.90
2391;DHT22;22957;50.824;4.360;2024-03-29T00:11:43;12.10;99.90
2391;DHT22;22957;50.824;4.360;2024-03-29T00:14:09;12.10;99.90
2391;DHT22;22957;50.824;4.360;2024-03-29T00:16:34;11.90;99.90
2391;DHT22;22957;50.824;4.360;2024-03-29T00:19:00;12.10;99.90
2391;DHT22;22957;50.824;4.360;2024-03-29T00:21:26;12.00;99.90
2391;DHT22;22957;50.824;4.360;2024-03-29T00:23:51;12.00;99.90
2391;DHT22;22957;50.824;4.360;2024-03-29T00:26:17;12.00;99.90
2391;DHT22;22957;50.824;4.360;2024-03-29T00:28:42;12.30;99.90
2391;DHT22;22957;50.824;4.360;2024-03-29T00:31:08;12.20;99.90
2391;DHT22;22957;50.824;4.360;2024-03-29T00:33:34;12.20;99.90
2391;DHT22;22957;50.824;4.360;2024-03-29T00:36:00;12.00;99.90
2391;DHT22;22957;50.824;4.360;2024-03-29T00:38:26;12.10;99.90
2391;DHT22;22957;50.824;4.360;2024-03-29T00:40:51;11.90;99.90
2391;DHT22;22957;50.824;4.360;2024-03-29T00:43:17;12.20;99.90
2391;DHT22;22957;50.824;4.360;2024-03-29T00:45:42;12.30;99.90
2391;DHT22;22957;50.824;4.360;2024-03-29T00:48:09;12.10;99.90
2391;DHT22;22957;50.824;4.360;2024-03-29T00:50:34;12.60;99.90
2391;DHT22;22957;50.824;4.360;2024-03-29T00:53:00;12.30;99.90
2391;DHT22;22957;50.824;4.360;2024-03-29T00:55:25;12.20;99.90
2391;DHT22;22957;50.824;4.360;2024-03-29T00:57:51;12.50;99.90
2391;DHT22;22957;50.824;4.360;2024-03-29T01:00:17;12.60;99.90
2391;DHT22;22957;50.824;4.360;2024-03-29T01:02:42;12.80;99.90
2391;DHT22;22957;50.824;4.360;2024-03-29T01:05:08;12.50;99.90
2391;DHT22;22957;50.824;4.360;2024-03-29T01:07:34;12.70;99.90
2391;DHT22;22957;50.824;4.360;2024-03-29T01:10:00;12.40;99.90
2391;DHT22;22957;50.824;4.360;2024-03-29T01:12:26;12.40;99.90
2391;DHT22;22957;50.824;4.360;2024-03-29T01:14:51;12.60;99.90
2391;DHT22;22957;50.824;4.360;2024-03-29T01:17:17;12.40;99.90
2391;DHT22;22957;50.824;4.360;2024-03-29T01:19:43;12.80;99.90
2391;DHT22;22957;50.824;4.360;2024-03-29T01:22:09;12.60;99.90
2391;DHT22;22957;50.824;4.360;2024-03-29T01:24:34;12.50;99.90
2391;DHT22;22957;50.824;4.360;2024-03-29T01:27:00;12.70;99.90
2391;DHT22;22957;50.824;4.360;2024-03-29T01:29:25;12.30;99.90
2391;DHT22;22957;50.824;4.360;2024-03-29T01:31:51;12.20;99.90
2391;DHT22;22957;50.824;4.360;2024-03-29T01:34:17;12.30;99.90
2391;DHT22;22957;50.824;4.360;2024-03-29T01:36:43;12.50;99.90
2391;DHT22;22957;50.824;4.360;2024-03-29T01:39:08;12.70;99.90
2391;DHT22;22957;50.824;4.360;2024-03-29T01:41:36;12.40;99.90
2391;DHT22;22957;50.824;4.360;2024-03-29T01:44:02;12.40;99.90
2391;DHT22;22957;50.824;4.360;2024-03-29T01:46:27;11.90;99.90
2391;DHT22;22957;50.824;4.360;2024-03-29T01:48:54;11.90;99.90
2391;DHT22;22957;50.824;4.360;2024-03-29T01:51:21;11.90;99.90
2391;DHT22;22957;50.824;4.360;2024-03-29T01:53:52;12.00;99.90
2391;DHT22;22957;50.824;4.360;2024-03-29T01:56:22;11.70;99.90
2391;DHT22;22957;50.824;4.360;2024-03-29T01:58:52;11.60;99.90
2391;DHT22;22957;50.824;4.360;2024-03-29T02:01:19;11.70;99.90
2391;DHT22;22957;50.824;4.360;2024-03-29T02:03:47;11.70;99.90
2391;DHT22;22957;50.824;4.360;2024-03-29T02:06:12;11.70;99.90
2391;DHT22;22957;50.824;4.360;2024-03-29T02:08:39;11.70;99.90
2391;DHT22;22957;50.824;4.360;2024-03-29T02:11:04;11.30;99.90
2391;DHT22;22957;50.824;4.360;2024-03-29T02:13:30;11.20;99.90
2391;DHT22;22957;50.824;4.360;2024-03-29T02:15:57;11.30;99.90
2391;DHT22;22957;50.824;4.360;2024-03-29T02:18:23;11.20;99.90
2391;DHT22;22957;50.824;4.360;2024-03-29T02:20:49;11.60;99.90
2391;DHT22;22957;50.824;4.360;2024-03-29T02:23:19;11.70;99.90
2391;DHT22;22957;50.824;4.360;2024-03-29T02:25:45;11.20;99.90
2391;DHT22;22957;50.824;4.360;2024-03-29T02:28:12;11.30;99.90
2391;DHT22;22957;50.824;4.360;2024-03-29T02:30:38;11.20;99.90
2391;DHT22;22957;50.824;4.360;2024-03-29T02:33:04;11.30;99.90
2391;DHT22;22957;50.824;4.360;2024-03-29T02:35:30;10.90;99.90
2391;DHT22;22957;50.824;4.360;2024-03-29T02:37:56;11.10;99.90
2391;DHT22;22957;50.824;4.360;2024-03-29T02:40:22;10.90;99.90
2391;DHT22;22957;50.824;4.360;2024-03-29T02:42:48;11.00;99.90
2391;DHT22;22957;50.824;4.360;2024-03-29T02:45:14;11.10;99.90
2391;DHT22;22957;50.824;4.360;2024-03-29T02:47:40;11.10;99.90
2391;DHT22;22957;50.824;4.360;2024-03-29T02:50:08;10.90;99.90
2391;DHT22;22957;50.824;4.360;2024-03-29T02:52:34;10.80;99.90
2391;DHT22;22957;50.824;4.360;2024-03-29T02:55:00;11.10;99.90
2391;DHT22;22957;50.824;4.360;2024-03-29T02:57:25;10.60;99.90
2391;DHT22;22957;50.824;4.360;2024-03-29T02:59:51;10.40;99.90
2391;DHT22;22957;50.824;4.360;2024-03-29T03:02:16;10.70;99.90
2391;DHT22;22957;50.824;4.360;2024-03-29T03:04:42;10.80;99.90
2391;DHT22;22957;50.824;4.360;2024-03-29T03:07:08;10.60;99.90
2391;DHT22;22957;50.824;4.360;2024-03-29T03:09:52;10.30;99.90
2391;DHT22;22957;50.824;4.360;2024-03-29T03:12:36;10.20;99.90
2391;DHT22;22957;50.824;4.360;2024-03-29T03:15:01;10.20;99.90
2391;DHT22;22957;50.824;4.360;2024-03-29T03:17:28;10.00;99.90
2391;DHT22;22957;50.824;4.360;2024-03-29T03:19:53;9.90;99.90
2391;DHT22;22957;50.824;4.360;2024-03-29T03:22:19;10.00;99.90
2391;DHT22;22957;50.824;4.360;2024-03-29T03:24:45;9.90;99.90
2391;DHT22;22957;50.824;4.360;2024-03-29T03:27:11;10.00;99.90
2391;DHT22;22957;50.824;4.360;2024-03-29T03:29:37;10.00;99.90
2391;DHT22;22957;50.824;4.360;2024-03-29T03:32:03;10.00;99.90
2391;DHT22;22957;50.824;4.360;2024-03-29T03:34:29;10.00;99.90
2391;DHT22;22957;50.824;4.360;2024-03-29T03:36:55;9.80;99.90
2391;DHT22;22957;50.824;4.360;2024-03-29T03:39:21;9.70;99.90
2391;DHT22;22957;50.824;4.360;2024-03-29T03:41:47;9.90;99.90
2391;DHT22;22957;50.824;4.360;2024-03-29T03:44:13;10.00;99.90
2391;DHT22;22957;50.824;4.360;2024-03-29T03:46:38;9.70;99.90
2391;DHT22;22957;50.824;4.360;2024-03-29T03:49:04;9.60;99.90
2391;DHT22;22957;50.824;4.360;2024-03-29T03:51:30;9.90;99.90
2391;DHT22;22957;50.824;4.360;2024-03-29T03:53:56;10.00;99.90
2391;DHT22;22957;50.824;4.360;2024-03-29T03:56:21;9.70;99.90
2391;DHT22;22957;50.824;4.360;2024-03-29T03:58:47;9.70;99.90
2391;DHT22;22957;50.824;4.360;2024-03-29T04:01:13;9.70;99.90
2391;DHT22;22957;50.824;4.360;2024-03-29T04:03:38;9.60;99.90
2391;DHT22;22957;50.824;4.360;2024-03-29T04:06:05;9.60;99.90
2391;DHT22;22957;50.824;4.360;2024-03-29T04:08:31;9.60;99.90
2391;DHT22;22957;50.824;4.360;2024-03-29T04:10:57;9.40;99.90
2391;DHT22;22957;50.824;4.360;2024-03-29T04:13:22;9.40;99.90
2391;DHT22;22957;50.824;4.360;2024-03-29T04:15:48;9.20;99.90
2391;DHT22;22957;50.824;4.360;2024-03-29T04:18:14;9.20;99.90
2391;DHT22;22957;50.824;4.360;2024-03-29T04:20:39;9.30;99.90
2391;DHT22;22957;50.824;4.360;2024-03-29T04:23:06;9.60;99.90
2391;DHT22;22957;50.824;4.360;2024-03-29T04:25:32;9.50;99.90
2391;DHT22;22957;50.824;4.360;2024-03-29T04:27:58;9.60;99.90
2391;DHT22;22957;50.824;4.360;2024-03-29T04:30:24;9.60;99.90
2391;DHT22;22957;50.824;4.360;2024-03-29T04:32:50;9.60;99.90
2391;DHT22;22957;50.824;4.360;2024-03-29T04:35:15;9.60;99.90
2391;DHT22;22957;50.824;4.360;2024-03-29T04:37:41;9.50;99.90
2391;DHT22;22957;50.824;4.360;2024-03-29T04:40:07;9.10;99.90
2391;DHT22;22957;50.824;4.360;2024-03-29T04:42:33;9.60;99.90
2391;DHT22;22957;50.824;4.360;2024-03-29T04:44:58;9.50;99.90
2391;DHT22;22957;50.824;4.360;2024-03-29T04:47:24;9.40;99.90
2391;DHT22;22957;50.824;4.360;2024-03-29T04:49:50;9.50;99.90
2391;DHT22;22957;50.824;4.360;2024-03-29T04:52:15;9.70;99.90
2391;DHT22;22957;50.824;4.360;2024-03-29T04:54:42;9.80;99.90
2391;DHT22;22957;50.824;4.360;2024-03-29T04:57:09;9.70;99.90
2391;DHT22;22957;50.824;4.360;2024-03-29T04:59:34;9.70;99.90
2391;DHT22;22957;50.824;4.360;2024-03-29T05:02:01;9.70;99.90
2391;DHT22;22957;50.824;4.360;2024-03-29T05:04:26;9.30;99.90
2391;DHT22;22957;50.824;4.360;2024-03-29T05:06:56;9.40;99.90
2391;DHT22;22957;50.824;4.360;2024-03-29T05:09:22;9.80;99.90
2391;DHT22;22957;50.824;4.360;2024-03-29T05:11:48;9.50;99.90
2391;DHT22;22957;50.824;4.360;2024-03-29T05:14:18;9.60;99.90
2391;DHT22;22957;50.824;4.360;2024-03-29T05:16:45;10.00;99.90
2391;DHT22;22957;50.824;4.360;2024-03-29T05:19:11;9.80;99.90
2391;DHT22;22957;50.824;4.360;2024-03-29T05:21:37;10.10;99.90
2391;DHT22;22957;50.824;4.360;2024-03-29T05:24:03;9.90;99.90
2391;DHT22;22957;50.824;4.360;2024-03-29T05:26:28;9.80;99.90
2391;DHT22;22957;50.824;4.360;2024-03-29T05:28:54;9.60;99.90
2391;DHT22;22957;50.824;4.360;2024-03-29T05:31:23;9.90;99.90
2391;DHT22;22957;50.824;4.360;2024-03-29T05:33:49;9.70;99.90
2391;DHT22;22957;50.824;4.360;2024-03-29T05:36:14;9.90;99.90
2391;DHT22;22957;50.824;4.360;2024-03-29T05:38:40;10.10;99.90
2391;DHT22;22957;50.824;4.360;2024-03-29T05:41:05;10.00;99.90
2391;DHT22;22957;50.824;4.360;2024-03-29T05:43:31;10.00;99.90
2391;DHT22;22957;50.824;4.360;2024-03-29T05:45:57;10.10;99.90
2391;DHT22;22957;50.824;4.360;2024-03-29T05:48:23;10.20;99.90
2391;DHT22;22957;50.824;4.360;2024-03-29T05:50:49;10.20;99.90
2391;DHT22;22957;50.824;4.360;2024-03-29T05:53:15;10.30;99.90
2391;DHT22;22957;50.824;4.360;2024-03-29T05:55:40;10.20;99.90
2391;DHT22;22957;50.824;4.360;2024-03-29T05:58:06;10.30;99.90
2391;DHT22;22957;50.824;4.360;2024-03-29T06:00:32;10.20;99.90
2391;DHT22;22957;50.824;4.360;2024-03-29T06:03:01;10.10;99.90
2391;DHT22;22957;50.824;4.360;2024-03-29T06:05:30;10.20;99.90
2391;DHT22;22957;50.824;4.360;2024-03-29T06:07:56;10.60;99.90
2391;DHT22;22957;50.824;4.360;2024-03-29T06:10:21;10.50;99.90
2391;DHT22;22957;50.824;4.360;2024-03-29T06:12:47;10.80;99.90
2391;DHT22;22957;50.824;4.360;2024-03-29T06:15:12;10.50;99.90
2391;DHT22;22957;50.824;4.360;2024-03-29T06:17:57;10.30;99.90
2391;DHT22;22957;50.824;4.360;2024-03-29T06:20:23;10.00;99.90
2391;DHT22;22957;50.824;4.360;2024-03-29T06:22:48;10.10;99.90
2391;DHT22;22957;50.824;4.360;2024-03-29T06:25:14;10.00;99.90
2391;DHT22;22957;50.824;4.360;2024-03-29T06:27:41;10.10;99.90
2391;DHT22;22957;50.824;4.360;2024-03-29T06:30:09;9.80;99.90
2391;DHT22;22957;50.824;4.360;2024-03-29T06:32:35;9.50;99.90
2391;DHT22;22957;50.824;4.360;2024-03-29T06:35:00;9.70;99.90
2391;DHT22;22957;50.824;4.360;2024-03-29T06:37:27;9.70;99.90
2391;DHT22;22957;50.824;4.360;2024-03-29T06:39:54;10.00;99.90
2391;DHT22;22957;50.824;4.360;2024-03-29T06:42:20;10.00;99.90
2391;DHT22;22957;50.824;4.360;2024-03-29T06:44:45;10.10;99.90
2391;DHT22;22957;50.824;4.360;2024-03-29T06:47:11;10.10;99.90
2391;DHT22;22957;50.824;4.360;2024-03-29T06:49:37;10.10;99.90
2391;DHT22;22957;50.824;4.360;2024-03-29T06:52:02;10.40;99.90
2391;DHT22;22957;50.824;4.360;2024-03-29T06:54:28;10.40;99.90
2391;DHT22;22957;50.824;4.360;2024-03-29T06:56:54;10.30;99.90
2391;DHT22;22957;50.824;4.360;2024-03-29T06:59:20;10.40;99.90
2391;DHT22;22957;50.824;4.360;2024-03-29T07:01:46;10.00;99.90
2391;DHT22;22957;50.824;4.360;2024-03-29T07:04:21;10.30;99.90
2391;DHT22;22957;50.824;4.360;2024-03-29T07:06:47;10.20;99.90
2391;DHT22;22957;50.824;4.360;2024-03-29T07:09:15;10.40;99.90
2391;DHT22;22957;50.824;4.360;2024-03-29T07:11:41;9.90;99.90
2391;DHT22;22957;50.824;4.360;2024-03-29T07:14:07;10.20;99.90
2391;DHT22;22957;50.824;4.360;2024-03-29T07:16:32;10.40;99.90
2391;DHT22;22957;50.824;4.360;2024-03-29T07:18:58;10.40;99.90
2391;DHT22;22957;50.824;4.360;2024-03-29T07:21:24;10.40;99.90
2391;DHT22;22957;50.824;4.360;2024-03-29T07:23:50;10.50;99.90
2391;DHT22;22957;50.824;4.360;2024-03-29T07:26:16;10.40;99.90
2391;DHT22;22957;50.824;4.360;2024-03-29T07:28:41;10.70;99.90
2391;DHT22;22957;50.824;4.360;2024-03-29T07:31:08;11.00;99.90
2391;DHT22;22957;50.824;4.360;2024-03-29T07:33:34;11.10;99.90
2391;DHT22;22957;50.824;4.360;2024-03-29T07:35:59;10.90;99.90
2391;DHT22;22957;50.824;4.360;2024-03-29T07:38:25;11.00;99.90
2391;DHT22;22957;50.824;4.360;2024-03-29T07:40:52;11.50;99.90
2391;DHT22;22957;50.824;4.360;2024-03-29T07:43:23;11.40;99.90
2391;DHT22;22957;50.824;4.360;2024-03-29T07:45:49;11.20;99.90
2391;DHT22;22957;50.824;4.360;2024-03-29T07:48:16;11.70;99.90
2391;DHT22;22957;50.824;4.360;2024-03-29T07:50:43;11.60;99.90
2391;DHT22;22957;50.824;4.360;2024-03-29T07:53:09;11.40;99.90
2391;DHT22;22957;50.824;4.360;2024-03-29T07:55:39;11.70;99.90
2391;DHT22;22957;50.824;4.360;2024-03-29T07:58:05;11.90;99.90
2391;DHT22;22957;50.824;4.360;2024-03-29T08:00:32;11.70;99.90
2391;DHT22;22957;50.824;4.360;2024-03-29T08:03:01;12.10;99.90
2391;DHT22;22957;50.824;4.360;2024-03-29T08:05:29;12.30;99.90
2391;DHT22;22957;50.824;4.360;2024-03-29T08:07:55;12.50;99.90
2391;DHT22;22957;50.824;4.360;2024-03-29T08:10:21;12.50;99.90
2391;DHT22;22957;50.824;4.360;2024-03-29T08:12:47;12.70;99.90
2391;DHT22;22957;50.824;4.360;2024-03-29T08:15:13;12.70;99.90
2391;DHT22;22957;50.824;4.360;2024-03-29T08:17:38;12.90;99.90
2391;DHT22;22957;50.824;4.360;2024-03-29T08:20:04;12.80;99.90
2391;DHT22;22957;50.824;4.360;2024-03-29T08:22:30;12.80;99.90
2391;DHT22;22957;50.824;4.360;2024-03-29T08:24:59;12.80;99.90
2391;DHT22;22957;50.824;4.360;2024-03-29T08:27:26;12.90;99.90
2391;DHT22;22957;50.824;4.360;2024-03-29T08:29:52;13.20;99.90
2391;DHT22;22957;50.824;4.360;2024-03-29T08:32:18;13.40;99.90
2391;DHT22;22957;50.824;4.360;2024-03-29T08:34:44;13.30;99.90
2391;DHT22;22957;50.824;4.360;2024-03-29T08:37:09;13.30;99.90
2391;DHT22;22957;50.824;4.360;2024-03-29T08:39:35;13.90;99.90
2391;DHT22;22957;50.824;4.360;2024-03-29T08:42:06;13.80;99.90
2391;DHT22;22957;50.824;4.360;2024-03-29T08:44:32;14.50;99.90
2391;DHT22;22957;50.824;4.360;2024-03-29T08:46:59;14.40;99.90
2391;DHT22;22957;50.824;4.360;2024-03-29T08:49:27;14.40;99.90
2391;DHT22;22957;50.824;4.360;2024-03-29T08:51:52;14.10;99.90
2391;DHT22;22957;50.824;4.360;2024-03-29T08:54:18;14.30;99.90
2391;DHT22;22957;50.824;4.360;2024-03-29T08:56:44;14.30;99.90
2391;DHT22;22957;50.824;4.360;2024-03-29T08:59:10;14.20;99.90
2391;DHT22;22957;50.824;4.360;2024-03-29T09:01:38;14.50;99.90
2391;DHT22;22957;50.824;4.360;2024-03-29T09:04:04;14.40;99.90
2391;DHT22;22957;50.824;4.360;2024-03-29T09:06:35;14.40;99.90
2391;DHT22;22957;50.824;4.360;2024-03-29T09:09:01;14.80;99.90
2391;DHT22;22957;50.824;4.360;2024-03-29T09:11:28;15.60;99.90
2391;DHT22;22957;50.824;4.360;2024-03-29T09:13:54;15.60;99.90
2391;DHT22;22957;50.824;4.360;2024-03-29T09:16:21;15.80;99.90
2391;DHT22;22957;50.824;4.360;2024-03-29T09:18:47;16.00;99.90
2391;DHT22;22957;50.824;4.360;2024-03-29T09:21:13;16.30;99.90
2391;DHT22;22957;50.824;4.360;2024-03-29T09:23:38;16.50;99.90
2391;DHT22;22957;50.824;4.360;2024-03-29T09:26:07;16.40;99.90
2391;DHT22;22957;50.824;4.360;2024-03-29T09:28:32;16.30;99.90
2391;DHT22;22957;50.824;4.360;2024-03-29T09:31:00;15.50;99.90
2391;DHT22;22957;50.824;4.360;2024-03-29T09:33:26;15.10;99.90
2391;DHT22;22957;50.824;4.360;2024-03-29T09:35:51;15.10;99.90
2391;DHT22;22957;50.824;4.360;2024-03-29T09:38:19;15.50;99.90
2391;DHT22;22957;50.824;4.360;2024-03-29T09:40:45;15.80;99.90
2391;DHT22;22957;50.824;4.360;2024-03-29T09:43:10;15.80;99.90
2391;DHT22;22957;50.824;4.360;2024-03-29T09:45:38;15.80;99.90
2391;DHT22;22957;50.824;4.360;2024-03-29T09:48:05;15.80;99.90
2391;DHT22;22957;50.824;4.360;2024-03-29T09:50:33;15.60;99.90
2391;DHT22;22957;50.824;4.360;2024-03-29T09:53:01;15.80;99.90
2391;DHT22;22957;50.824;4.360;2024-03-29T09:55:27;16.20;99.90
2391;DHT22;22957;50.824;4.360;2024-03-29T09:57:53;16.40;99.90
2391;DHT22;22957;50.824;4.360;2024-03-29T10:00:19;17.40;99.90
2391;DHT22;22957;50.824;4.360;2024-03-29T10:02:46;17.50;99.90
2391;DHT22;22957;50.824;4.360;2024-03-29T10:05:14;17.60;99.90
2391;DHT22;22957;50.824;4.360;2024-03-29T10:08:29;18.00;99.90
2391;DHT22;22957;50.824;4.360;2024-03-29T10:10:58;18.60;99.90
2391;DHT22;22957;50.824;4.360;2024-03-29T10:13:25;18.20;99.90
2391;DHT22;22957;50.824;4.360;2024-03-29T10:15:51;18.40;99.90
2391;DHT22;22957;50.824;4.360;2024-03-29T10:18:19;17.90;99.90
2391;DHT22;22957;50.824;4.360;2024-03-29T10:20:46;17.60;99.90
2391;DHT22;22957;50.824;4.360;2024-03-29T10:23:11;17.90;99.90
2391;DHT22;22957;50.824;4.360;2024-03-29T10:25:37;18.70;99.90
2391;DHT22;22957;50.824;4.360;2024-03-29T10:28:03;18.20;99.90
2391;DHT22;22957;50.824;4.360;2024-03-29T10:30:29;18.90;99.90
2391;DHT22;22957;50.824;4.360;2024-03-29T10:32:56;18.60;99.90
2391;DHT22;22957;50.824;4.360;2024-03-29T10:35:22;18.60;99.90
2391;DHT22;22957;50.824;4.360;2024-03-29T10:37:48;17.50;99.90
2391;DHT22;22957;50.824;4.360;2024-03-29T10:40:14;17.40;99.90
2391;DHT22;22957;50.824;4.360;2024-03-29T10:42:45;17.50;99.90
2391;DHT22;22957;50.824;4.360;2024-03-29T10:45:14;16.90;99.90
2391;DHT22;22957;50.824;4.360;2024-03-29T10:47:41;17.30;99.90
2391;DHT22;22957;50.824;4.360;2024-03-29T10:50:11;17.50;99.90
2391;DHT22;22957;50.824;4.360;2024-03-29T10:52:39;17.80;99.90
2391;DHT22;22957;50.824;4.360;2024-03-29T10:55:08;17.80;99.90
2391;DHT22;22957;50.824;4.360;2024-03-29T10:57:34;16.80;99.90
2391;DHT22;22957;50.824;4.360;2024-03-29T11:00:08;17.40;99.90
2391;DHT22;22957;50.824;4.360;2024-03-29T11:05:29;17.50;99.90
2391;DHT22;22957;50.824;4.360;2024-03-29T11:07:56;17.40;99.90
2391;DHT22;22957;50.824;4.360;2024-03-29T11:10:39;17.70;99.90
2391;DHT22;22957;50.824;4.360;2024-03-29T11:15:48;18.40;99.90
2391;DHT22;22957;50.824;4.360;2024-03-29T11:18:15;18.80;99.90
2391;DHT22;22957;50.824;4.360;2024-03-29T11:20:47;19.00;99.90
2391;DHT22;22957;50.824;4.360;2024-03-29T11:23:20;19.20;99.90
2391;DHT22;22957;50.824;4.360;2024-03-29T11:25:49;18.90;99.90
2391;DHT22;22957;50.824;4.360;2024-03-29T11:30:50;18.80;99.90
2391;DHT22;22957;50.824;4.360;2024-03-29T11:33:44;19.10;99.90
2391;DHT22;22957;50.824;4.360;2024-03-29T11:36:13;19.20;99.90
2391;DHT22;22957;50.824;4.360;2024-03-29T11:38:39;19.20;99.90
2391;DHT22;22957;50.824;4.360;2024-03-29T11:41:16;18.90;99.90
2391;DHT22;22957;50.824;4.360;2024-03-29T11:43:42;19.20;99.90
2391;DHT22;22957;50.824;4.360;2024-03-29T11:46:10;19.30;99.90
2391;DHT22;22957;50.824;4.360;2024-03-29T11:48:36;19.20;99.90
2391;DHT22;22957;50.824;4.360;2024-03-29T11:51:09;19.80;99.90
2391;DHT22;22957;50.824;4.360;2024-03-29T11:53:36;20.20;99.90
2391;DHT22;22957;50.824;4.360;2024-03-29T11:56:03;19.30;99.90
2391;DHT22;22957;50.824;4.360;2024-03-29T11:58:31;19.20;99.90
2391;DHT22;22957;50.824;4.360;2024-03-29T12:00:58;19.80;99.90
2391;DHT22;22957;50.824;4.360;2024-03-29T12:03:31;19.50;99.90
2391;DHT22;22957;50.824;4.360;2024-03-29T12:05:58;19.50;99.90
2391;DHT22;22957;50.824;4.360;2024-03-29T12:08:43;19.30;99.90
2391;DHT22;22957;50.824;4.360;2024-03-29T12:11:08;19.70;99.90
2391;DHT22;22957;50.824;4.360;2024-03-29T12:13:34;19.60;99.90
2391;DHT22;22957;50.824;4.360;2024-03-29T12:16:00;18.80;99.90
2391;DHT22;22957;50.824;4.360;2024-03-29T12:18:27;18.40;99.90
2391;DHT22;22957;50.824;4.360;2024-03-29T12:21:02;18.60;99.90
2391;DHT22;22957;50.824;4.360;2024-03-29T12:23:28;19.10;99.90
2391;DHT22;22957;50.824;4.360;2024-03-29T12:25:56;18.80;99.90
2391;DHT22;22957;50.824;4.360;2024-03-29T12:28:23;19.00;99.90
2391;DHT22;22957;50.824;4.360;2024-03-29T12:30:49;19.30;99.90
2391;DHT22;22957;50.824;4.360;2024-03-29T12:33:16;19.10;99.90
2391;DHT22;22957;50.824;4.360;2024-03-29T12:35:43;19.30;99.90
2391;DHT22;22957;50.824;4.360;2024-03-29T12:38:11;19.10;99.90
2391;DHT22;22957;50.824;4.360;2024-03-29T12:40:38;19.70;99.90
2391;DHT22;22957;50.824;4.360;2024-03-29T12:43:06;19.50;99.90
2391;DHT22;22957;50.824;4.360;2024-03-29T12:45:37;19.50;99.90
2391;DHT22;22957;50.824;4.360;2024-03-29T12:48:16;19.40;99.90
2391;DHT22;22957;50.824;4.360;2024-03-29T12:50:43;20.10;99.90
2391;DHT22;22957;50.824;4.360;2024-03-29T12:53:11;19.10;99.90
2391;DHT22;22957;50.824;4.360;2024-03-29T12:55:37;19.00;99.90
2391;DHT22;22957;50.824;4.360;2024-03-29T12:58:05;19.20;99.90
2391;DHT22;22957;50.824;4.360;2024-03-29T13:00:34;18.60;99.90
2391;DHT22;22957;50.824;4.360;2024-03-29T13:03:00;18.70;99.90
2391;DHT22;22957;50.824;4.360;2024-03-29T13:05:26;18.50;99.90
2391;DHT22;22957;50.824;4.360;2024-03-29T13:07:53;19.10;99.90
2391;DHT22;22957;50.824;4.360;2024-03-29T13:10:19;19.40;99.90
2391;DHT22;22957;50.824;4.360;2024-03-29T13:12:48;19.60;99.90
2391;DHT22;22957;50.824;4.360;2024-03-29T13:15:20;19.50;99.90
2391;DHT22;22957;50.824;4.360;2024-03-29T13:17:47;19.20;99.90
2391;DHT22;22957;50.824;4.360;2024-03-29T13:20:15;18.80;99.90
2391;DHT22;22957;50.824;4.360;2024-03-29T13:22:45;18.70;99.90
2391;DHT22;22957;50.824;4.360;2024-03-29T13:25:16;19.10;99.90
2391;DHT22;22957;50.824;4.360;2024-03-29T13:27:43;19.10;99.90
2391;DHT22;22957;50.824;4.360;2024-03-29T13:30:11;19.50;99.90
2391;DHT22;22957;50.824;4.360;2024-03-29T13:32:38;19.50;99.90
2391;DHT22;22957;50.824;4.360;2024-03-29T13:35:05;19.90;99.90
2391;DHT22;22957;50.824;4.360;2024-03-29T13:37:32;20.10;99.90
2391;DHT22;22957;50.824;4.360;2024-03-29T13:39:58;19.90;99.90
2391;DHT22;22957;50.824;4.360;2024-03-29T13:42:23;19.30;99.90
2391;DHT22;22957;50.824;4.360;2024-03-29T13:44:50;18.70;99.90
2391;DHT22;22957;50.824;4.360;2024-03-29T13:47:16;18.70;99.90
2391;DHT22;22957;50.824;4.360;2024-03-29T13:49:42;18.60;99.90
2391;DHT22;22957;50.824;4.360;2024-03-29T13:52:08;18.90;99.90
2391;DHT22;22957;50.824;4.360;2024-03-29T13:54:34;19.50;99.90
2391;DHT22;22957;50.824;4.360;2024-03-29T13:57:00;19.70;99.90
2391;DHT22;22957;50.824;4.360;2024-03-29T13:59:27;19.70;99.90
2391;DHT22;22957;50.824;4.360;2024-03-29T14:01:53;19.30;99.90
2391;DHT22;22957;50.824;4.360;2024-03-29T14:04:18;19.10;99.90
2391;DHT22;22957;50.824;4.360;2024-03-29T14:06:44;19.30;99.90
2391;DHT22;22957;50.824;4.360;2024-03-29T14:09:09;19.20;99.90
2391;DHT22;22957;50.824;4.360;2024-03-29T14:11:35;19.20;99.90
2391;DHT22;22957;50.824;4.360;2024-03-29T14:14:00;19.60;99.90
2391;DHT22;22957;50.824;4.360;2024-03-29T14:16:26;19.50;99.90
2391;DHT22;22957;50.824;4.360;2024-03-29T14:18:52;19.10;99.90
2391;DHT22;22957;50.824;4.360;2024-03-29T14:21:17;19.20;99.90
2391;DHT22;22957;50.824;4.360;2024-03-29T14:23:43;19.40;99.90
2391;DHT22;22957;50.824;4.360;2024-03-29T14:26:08;19.20;99.90
2391;DHT22;22957;50.824;4.360;2024-03-29T14:28:34;18.90;99.90
2391;DHT22;22957;50.824;4.360;2024-03-29T14:31:01;19.00;99.90
2391;DHT22;22957;50.824;4.360;2024-03-29T14:33:26;19.00;99.90
2391;DHT22;22957;50.824;4.360;2024-03-29T14:35:52;18.90;99.90
2391;DHT22;22957;50.824;4.360;2024-03-29T14:38:19;19.10;99.90
2391;DHT22;22957;50.824;4.360;2024-03-29T14:40:46;19.00;99.90
2391;DHT22;22957;50.824;4.360;2024-03-29T14:43:11;18.60;99.90
2391;DHT22;22957;50.824;4.360;2024-03-29T14:45:40;18.90;99.90
2391;DHT22;22957;50.824;4.360;2024-03-29T14:48:06;19.10;99.90
2391;DHT22;22957;50.824;4.360;2024-03-29T14:50:32;18.90;99.90
2391;DHT22;22957;50.824;4.360;2024-03-29T14:52:57;18.80;99.90
2391;DHT22;22957;50.824;4.360;2024-03-29T14:55:23;18.90;99.90
2391;DHT22;22957;50.824;4.360;2024-03-29T14:57:49;19.00;99.90
2391;DHT22;22957;50.824;4.360;2024-03-29T15:00:15;19.00;99.90
2391;DHT22;22957;50.824;4.360;2024-03-29T15:02:41;19.10;99.90
2391;DHT22;22957;50.824;4.360;2024-03-29T15:05:08;18.70;99.90
2391;DHT22;22957;50.824;4.360;2024-03-29T15:07:37;18.70;99.90
2391;DHT22;22957;50.824;4.360;2024-03-29T15:10:02;18.90;99.90
2391;DHT22;22957;50.824;4.360;2024-03-29T15:12:38;19.10;99.90
2391;DHT22;22957;50.824;4.360;2024-03-29T15:15:05;19.30;99.90
2391;DHT22;22957;50.824;4.360;2024-03-29T15:17:32;19.00;99.90
2391;DHT22;22957;50.824;4.360;2024-03-29T15:19:57;18.70;99.90
2391;DHT22;22957;50.824;4.360;2024-03-29T15:22:23;18.70;99.90
2391;DHT22;22957;50.824;4.360;2024-03-29T15:24:49;18.70;99.90
2391;DHT22;22957;50.824;4.360;2024-03-29T15:27:15;18.70;99.90
2391;DHT22;22957;50.824;4.360;2024-03-29T15:30:13;19.00;99.90
2391;DHT22;22957;50.824;4.360;2024-03-29T15:32:39;18.40;99.90
2391;DHT22;22957;50.824;4.360;2024-03-29T15:35:04;18.00;99.90
2391;DHT22;22957;50.824;4.360;2024-03-29T15:37:30;17.90;99.90
2391;DHT22;22957;50.824;4.360;2024-03-29T15:39:56;18.20;99.90
2391;DHT22;22957;50.824;4.360;2024-03-29T15:42:22;18.10;99.90
2391;DHT22;22957;50.824;4.360;2024-03-29T15:44:48;18.50;99.90
2391;DHT22;22957;50.824;4.360;2024-03-29T15:47:13;18.50;99.90
2391;DHT22;22957;50.824;4.360;2024-03-29T15:49:40;18.50;99.90
2391;DHT22;22957;50.824;4.360;2024-03-29T15:52:05;18.00;99.90
2391;DHT22;22957;50.824;4.360;2024-03-29T15:54:32;18.40;99.90